Terminal Aerodrome Forecast
Issued by NWS North Platte, NE

Home | Current Version | Previous Version | Graphics & Text | Print | Product List | Glossary On
Versions: 1 2 3 4 5 6 7 8 9 10 11 12 13 14 15 16 17 18 19 20
000
FTUS43 KLBF 161100
TAFVTN
TAF
KVTN 161120Z 1612/1712 36006KT P6SM OVC015
     FM161900 03010KT P6SM -SHRA SCT025 OVC035
     FM170300 03008KT P6SM -SHRA OVC015
      TEMPO 1708/1712 2SM RA=

USA.gov is the U.S. government's official web portal to all federal, state and local government web resources and services.